createdAt,value
2022-08-25T00:00:16.041Z,99.98
2022-08-25T00:02:54.926Z,98.94
2022-08-25T00:05:29.014Z,98.82
2022-08-25T00:07:57.640Z,98.24
2022-08-25T00:10:25.565Z,98.43
2022-08-25T00:12:53.105Z,98.35
2022-08-25T00:15:22.860Z,99.12
2022-08-25T00:17:52.470Z,98.38
2022-08-25T00:20:20.835Z,98.09
2022-08-25T00:22:49.364Z,98.47
2022-08-25T00:25:17.490Z,98.28
2022-08-25T00:27:45.866Z,98.22
2022-08-25T00:30:16.547Z,98.00
2022-08-25T00:32:54.995Z,97.89
2022-08-25T00:35:25.946Z,97.78
2022-08-25T00:37:53.704Z,97.75
2022-08-25T00:40:22.146Z,98.12
2022-08-25T00:42:49.849Z,99.23
2022-08-25T00:45:18.372Z,98.48
2022-08-25T00:47:46.177Z,97.43
2022-08-25T00:50:15.432Z,97.05
2022-08-25T00:52:50.954Z,97.57
2022-08-25T00:55:25.196Z,97.72
2022-08-25T00:57:58.560Z,97.65
2022-08-25T01:00:31.142Z,97.65
2022-08-25T01:02:59.498Z,96.87
2022-08-25T01:05:28.396Z,97.82
2022-08-25T01:08:03.088Z,97.39
2022-08-25T01:10:36.693Z,96.62
2022-08-25T01:13:13.577Z,97.07
2022-08-25T01:15:50.085Z,96.76
2022-08-25T01:18:17.612Z,97.02
2022-08-25T01:20:52.744Z,97.33
2022-08-25T01:23:22.200Z,95.51
2022-08-25T01:26:05.724Z,96.13
2022-08-25T01:28:34.413Z,96.72
2022-08-25T01:31:02.309Z,96.63
2022-08-25T01:33:29.903Z,96.48
2022-08-25T01:35:57.486Z,96.81
2022-08-25T01:38:25.259Z,96.88
2022-08-25T01:40:52.760Z,96.92
2022-08-25T01:43:35.939Z,97.19
2022-08-25T01:46:04.098Z,97.47
2022-08-25T01:48:32.875Z,97.32
2022-08-25T01:51:00.356Z,97.01
2022-08-25T01:53:33.687Z,97.32
2022-08-25T01:56:10.173Z,97.37
2022-08-25T01:58:41.589Z,97.20
2022-08-25T02:01:12.643Z,97.03
2022-08-25T02:03:42.240Z,97.07
2022-08-25T02:06:12.952Z,97.11
2022-08-25T02:08:41.778Z,97.03
2022-08-25T02:11:14.700Z,96.81
2022-08-25T02:13:42.832Z,96.69
2022-08-25T02:16:17.111Z,97.56
2022-08-25T02:18:45.541Z,97.69
2022-08-25T02:21:14.158Z,97.53
2022-08-25T02:23:42.541Z,97.03
2022-08-25T02:26:10.576Z,97.64
2022-08-25T02:28:38.028Z,97.84
2022-08-25T02:31:06.317Z,97.94
2022-08-25T02:33:34.148Z,97.98
2022-08-25T02:36:02.239Z,99.05
2022-08-25T02:38:29.894Z,98.51
2022-08-25T02:40:59.893Z,98.77
2022-08-25T02:43:29.121Z,98.90
2022-08-25T02:45:57.691Z,98.92
2022-08-25T02:48:25.650Z,98.86
2022-08-25T02:50:53.173Z,98.85
2022-08-25T02:53:21.852Z,98.57
2022-08-25T02:55:49.516Z,98.58
2022-08-25T02:58:17.215Z,98.39
2022-08-25T03:00:46.180Z,99.36
2022-08-25T03:03:13.915Z,99.97
2022-08-25T03:05:41.812Z,99.98
2022-08-25T03:08:10.067Z,99.40
2022-08-25T03:10:38.052Z,99.20
2022-08-25T03:13:06.012Z,99.19
2022-08-25T03:15:37.681Z,98.82
2022-08-25T03:18:05.754Z,98.49
2022-08-25T03:20:36.468Z,98.40
2022-08-25T03:23:04.900Z,98.33
2022-08-25T03:25:50.959Z,98.11
2022-08-25T03:28:19.676Z,98.04
2022-08-25T03:30:55.819Z,97.96
2022-08-25T03:33:24.037Z,98.20
2022-08-25T03:35:51.479Z,98.90
2022-08-25T03:38:19.209Z,98.79
2022-08-25T03:40:46.992Z,98.42
2022-08-25T03:43:14.641Z,97.79
2022-08-25T03:45:43.682Z,97.56
2022-08-25T03:48:12.416Z,97.79
2022-08-25T03:50:51.657Z,98.09
2022-08-25T03:53:20.577Z,98.04
2022-08-25T03:55:48.298Z,97.94
2022-08-25T03:58:15.793Z,97.77
2022-08-25T04:00:44.930Z,97.50
2022-08-25T04:03:12.690Z,97.61
2022-08-25T04:05:40.148Z,97.35
2022-08-25T04:08:09.213Z,97.07
2022-08-25T04:10:37.289Z,97.07
2022-08-25T04:13:06.359Z,96.84
2022-08-25T04:15:36.015Z,96.70
2022-08-25T04:18:04.045Z,96.68
2022-08-25T04:20:31.736Z,96.72
2022-08-25T04:23:01.332Z,96.65
2022-08-25T04:25:29.076Z,96.39
2022-08-25T04:27:56.549Z,96.27
2022-08-25T04:30:24.200Z,96.31
2022-08-25T04:32:51.993Z,96.40
2022-08-25T04:35:19.487Z,96.57
2022-08-25T04:37:48.811Z,96.49
2022-08-25T04:40:16.721Z,96.18
2022-08-25T04:42:45.052Z,95.33
2022-08-25T04:45:16.087Z,93.86
2022-08-25T04:47:43.532Z,92.66
2022-08-25T04:50:11.128Z,91.82
2022-08-25T04:52:38.876Z,91.33
2022-08-25T04:55:07.487Z,90.92
2022-08-25T04:57:34.996Z,95.59
2022-08-25T05:00:03.899Z,97.57
2022-08-25T05:02:31.283Z,98.47
2022-08-25T05:04:58.656Z,97.54
2022-08-25T05:07:26.531Z,95.35
2022-08-25T05:09:53.915Z,94.28
2022-08-25T05:12:21.352Z,93.62
2022-08-25T05:14:52.736Z,95.41
2022-08-25T05:17:20.392Z,94.00
2022-08-25T05:19:50.468Z,92.90
2022-08-25T05:22:17.964Z,92.15
2022-08-25T05:24:45.353Z,95.11
2022-08-25T05:27:13.109Z,92.92
2022-08-25T05:29:40.610Z,95.71
2022-08-25T05:32:08.083Z,94.98
2022-08-25T05:34:35.955Z,93.39
2022-08-25T05:37:04.606Z,91.85
2022-08-25T05:39:33.784Z,91.36
2022-08-25T05:42:01.612Z,90.10
2022-08-25T05:44:29.076Z,93.96
2022-08-25T05:46:56.513Z,94.33
2022-08-25T05:49:24.216Z,94.43
2022-08-25T05:51:51.666Z,94.53
2022-08-25T05:54:19.709Z,94.32
2022-08-25T05:56:47.491Z,95.40
2022-08-25T05:59:14.995Z,91.92
2022-08-25T06:02:01.380Z,90.49
2022-08-25T06:04:29.218Z,92.42
2022-08-25T06:06:56.660Z,92.22
2022-08-25T06:09:24.458Z,90.11
2022-08-25T06:11:55.169Z,86.48
2022-08-25T06:14:24.000Z,85.59
2022-08-25T06:16:52.512Z,86.79
2022-08-25T06:19:20.424Z,85.65
2022-08-25T06:21:47.845Z,83.92
2022-08-25T06:24:15.935Z,83.00
2022-08-25T06:26:44.282Z,83.78
2022-08-25T06:29:14.169Z,84.24
2022-08-25T06:31:42.552Z,81.52
2022-08-25T06:34:11.380Z,81.84
2022-08-25T06:36:39.586Z,82.19
2022-08-25T06:39:08.257Z,83.63
2022-08-25T06:41:39.210Z,82.89
2022-08-25T06:44:10.985Z,82.79
2022-08-25T06:46:38.974Z,81.83
2022-08-25T06:49:07.523Z,79.89
2022-08-25T06:51:37.968Z,79.76
2022-08-25T06:54:07.257Z,79.14
2022-08-25T06:56:35.067Z,77.76
2022-08-25T06:59:04.556Z,77.10
2022-08-25T07:01:33.043Z,79.25
2022-08-25T07:04:04.268Z,79.75
2022-08-25T07:06:37.703Z,80.83
2022-08-25T07:09:07.752Z,77.70
2022-08-25T07:11:35.853Z,76.98
2022-08-25T07:14:09.329Z,77.67
2022-08-25T07:16:37.943Z,78.08
2022-08-25T07:19:08.309Z,77.34
2022-08-25T07:21:39.017Z,76.15
2022-08-25T07:24:09.548Z,75.48
2022-08-25T07:26:39.864Z,75.36
2022-08-25T07:29:11.447Z,76.50
2022-08-25T07:31:39.264Z,76.23
2022-08-25T07:34:26.492Z,76.55
2022-08-25T07:36:55.341Z,73.59
2022-08-25T07:39:24.783Z,72.22
2022-08-25T07:41:52.813Z,74.01
2022-08-25T07:44:23.729Z,71.58
2022-08-25T07:46:52.501Z,71.08
2022-08-25T07:49:23.651Z,71.05
2022-08-25T07:52:06.149Z,71.59
2022-08-25T07:54:37.797Z,71.96
2022-08-25T07:57:08.422Z,71.16
2022-08-25T07:59:41.454Z,70.36
2022-08-25T08:02:24.697Z,70.91
2022-08-25T08:04:53.936Z,70.92
2022-08-25T08:07:27.667Z,67.98
2022-08-25T08:13:02.136Z,66.64
2022-08-25T08:15:30.454Z,66.77
2022-08-25T08:17:59.383Z,66.13
2022-08-25T08:20:28.802Z,65.62
2022-08-25T08:22:57.161Z,65.77
2022-08-25T08:25:27.513Z,65.77
2022-08-25T08:27:56.518Z,65.14
2022-08-25T08:30:26.048Z,63.86
2022-08-25T08:33:11.723Z,63.58
2022-08-25T08:35:44.300Z,63.29
2022-08-25T08:38:17.351Z,63.02
2022-08-25T08:41:40.071Z,62.89
2022-08-25T08:44:20.077Z,62.13
2022-08-25T08:47:04.010Z,61.45
2022-08-25T08:49:48.425Z,61.12
2022-08-25T08:52:22.388Z,62.83
2022-08-25T08:54:56.876Z,62.01
2022-08-25T08:57:28.641Z,60.47
2022-08-25T09:00:05.456Z,59.63
2022-08-25T09:02:56.718Z,59.17
2022-08-25T09:05:28.867Z,60.37
2022-08-25T09:08:05.726Z,58.79
2022-08-25T09:10:47.758Z,59.77
2022-08-25T09:13:50.693Z,60.54
2022-08-25T09:16:57.644Z,58.36
2022-08-25T09:20:18.859Z,58.57
2022-08-25T09:22:49.524Z,56.87
2022-08-25T09:25:54.127Z,58.44
2022-08-25T09:28:40.641Z,56.30
2022-08-25T09:31:27.484Z,57.86
2022-08-25T09:34:00.893Z,57.77
2022-08-25T09:36:35.466Z,57.06
2022-08-25T09:39:06.665Z,55.68
2022-08-25T09:41:51.367Z,55.46
2022-08-25T09:44:32.008Z,54.68
2022-08-25T09:47:17.878Z,55.33
2022-08-25T09:50:00.705Z,56.06
2022-08-25T09:52:28.504Z,54.74
2022-08-25T09:54:58.404Z,54.68
2022-08-25T09:57:44.020Z,53.43
2022-08-25T10:00:12.772Z,54.98
2022-08-25T10:02:42.600Z,53.88
2022-08-25T10:05:26.110Z,56.63
2022-08-25T10:07:56.093Z,53.85
2022-08-25T10:10:36.790Z,53.68
2022-08-25T10:13:22.914Z,54.41
2022-08-25T10:16:20.390Z,54.33
2022-08-25T10:19:10.008Z,55.27
2022-08-25T10:21:40.179Z,55.00
2022-08-25T10:24:10.848Z,53.75
2022-08-25T10:27:07.689Z,53.84
2022-08-25T10:29:55.431Z,52.49
2022-08-25T10:32:32.576Z,55.03
2022-08-25T10:35:11.989Z,53.73
2022-08-25T10:38:04.460Z,51.92
2022-08-25T10:41:00.340Z,50.48
2022-08-25T10:43:31.326Z,51.60
2022-08-25T10:46:12.049Z,49.33
2022-08-25T10:48:52.633Z,50.59
2022-08-25T10:51:45.550Z,50.37
2022-08-25T10:54:59.182Z,50.39
2022-08-25T10:57:52.652Z,51.03
2022-08-25T11:00:23.644Z,49.12
2022-08-25T11:03:20.376Z,48.63
2022-08-25T11:05:58.211Z,52.40
2022-08-25T11:08:32.550Z,48.69
2022-08-25T11:11:28.582Z,48.74
2022-08-25T11:14:00.112Z,52.83
2022-08-25T11:16:39.616Z,47.83
2022-08-25T11:19:32.664Z,48.37
2022-08-25T11:22:07.316Z,47.68
2022-08-25T11:24:40.921Z,48.39
2022-08-25T11:27:15.828Z,50.68
2022-08-25T11:30:09.809Z,48.62
2022-08-25T11:32:39.229Z,48.03
2022-08-25T11:35:12.151Z,47.88
2022-08-25T11:38:15.660Z,49.46
2022-08-25T11:41:01.565Z,50.02
2022-08-25T11:44:02.262Z,49.58
2022-08-25T11:46:36.006Z,47.84
2022-08-25T11:49:28.259Z,47.75
2022-08-25T11:52:02.896Z,46.53
2022-08-25T11:54:38.744Z,45.40
2022-08-25T11:57:17.324Z,45.56
2022-08-25T11:59:55.795Z,44.28
2022-08-25T12:02:39.219Z,44.73
2022-08-25T12:05:07.189Z,45.17
2022-08-25T12:07:46.992Z,45.53
2022-08-25T12:10:25.856Z,44.80
2022-08-25T12:13:04.865Z,44.44
2022-08-25T12:15:43.960Z,45.21
2022-08-25T12:18:40.123Z,44.42
2022-08-25T12:21:15.127Z,46.74
2022-08-25T12:24:04.051Z,44.91
2022-08-25T12:26:50.272Z,44.17
2022-08-25T12:29:26.646Z,44.12
2022-08-25T12:32:07.903Z,43.16
2022-08-25T12:34:58.780Z,43.12
2022-08-25T12:37:27.644Z,43.09
2022-08-25T12:39:55.058Z,44.24
2022-08-25T12:42:43.276Z,45.47
2022-08-25T12:45:26.105Z,45.15
2022-08-25T12:47:54.699Z,45.53
2022-08-25T12:50:28.352Z,45.58
2022-08-25T12:53:08.895Z,46.07
2022-08-25T12:55:39.960Z,46.80
2022-08-25T12:58:08.459Z,44.38
2022-08-25T13:01:03.359Z,44.67
2022-08-25T13:04:00.183Z,44.46
2022-08-25T13:06:44.316Z,43.72
2022-08-25T13:09:32.078Z,43.20
2022-08-25T13:12:16.703Z,43.57
2022-08-25T13:14:52.105Z,42.94
2022-08-25T13:17:35.048Z,45.05
2022-08-25T13:20:24.600Z,45.57
2022-08-25T13:25:50.900Z,43.60
2022-08-25T13:28:28.685Z,43.87
2022-08-25T13:31:04.761Z,42.51
2022-08-25T13:33:33.273Z,42.06
2022-08-25T13:36:23.164Z,42.28
2022-08-25T13:38:51.503Z,42.72
2022-08-25T13:41:29.260Z,43.12
2022-08-25T13:44:00.881Z,43.27
2022-08-25T13:46:30.141Z,44.52
2022-08-25T13:49:08.959Z,43.85
2022-08-25T13:51:38.752Z,43.47
2022-08-25T13:54:09.526Z,43.43
2022-08-25T13:56:41.840Z,44.30
2022-08-25T13:59:28.234Z,45.18
2022-08-25T14:01:56.366Z,46.17
2022-08-25T14:04:24.227Z,44.82
2022-08-25T14:07:14.173Z,43.78
2022-08-25T14:09:53.116Z,43.02
2022-08-25T14:15:34.009Z,41.29
2022-08-25T14:18:06.623Z,41.14
2022-08-25T14:20:37.191Z,43.41
2022-08-25T14:23:12.866Z,44.30
2022-08-25T14:25:44.162Z,44.48
2022-08-25T14:28:16.212Z,44.77
2022-08-25T14:30:49.314Z,46.27
2022-08-25T14:33:23.542Z,44.70
2022-08-25T14:35:54.320Z,45.20
2022-08-25T14:38:22.939Z,45.12
2022-08-25T14:40:51.091Z,43.25
2022-08-25T14:43:23.772Z,42.72
2022-08-25T14:45:52.955Z,41.80
2022-08-25T14:48:26.584Z,41.85
2022-08-25T14:50:58.354Z,42.34
2022-08-25T14:53:26.769Z,42.95
2022-08-25T14:55:55.669Z,44.10
2022-08-25T14:58:28.064Z,45.50
2022-08-25T15:01:03.002Z,46.10
2022-08-25T15:03:35.390Z,45.78
2022-08-25T15:06:05.981Z,44.48
2022-08-25T15:08:52.092Z,45.04
2022-08-25T15:11:19.847Z,44.84
2022-08-25T15:13:49.758Z,45.83
2022-08-25T15:16:34.024Z,45.88
2022-08-25T15:19:14.362Z,43.76
2022-08-25T15:21:45.308Z,45.20
2022-08-25T15:24:17.770Z,45.54
2022-08-25T15:27:07.249Z,45.08
2022-08-25T15:29:38.243Z,44.14
2022-08-25T15:32:09.259Z,43.28
2022-08-25T15:34:37.357Z,43.44
2022-08-25T15:37:11.649Z,43.59
2022-08-25T15:39:40.918Z,44.47
2022-08-25T15:42:10.305Z,44.15
2022-08-25T15:44:40.111Z,44.92
2022-08-25T15:47:12.715Z,45.76
2022-08-25T15:49:40.335Z,44.92
2022-08-25T15:52:07.732Z,44.13
2022-08-25T15:54:35.891Z,44.70
2022-08-25T15:57:04.262Z,46.71
2022-08-25T15:59:40.253Z,45.90
2022-08-25T16:02:14.823Z,45.97
2022-08-25T16:04:43.222Z,44.65
2022-08-25T16:07:13.183Z,44.83
2022-08-25T16:09:41.757Z,47.16
2022-08-25T16:12:09.528Z,46.29
2022-08-25T16:14:38.553Z,46.02
2022-08-25T16:17:06.682Z,46.77
2022-08-25T16:19:35.792Z,46.62
2022-08-25T16:22:08.832Z,47.06
2022-08-25T16:24:46.363Z,47.62
2022-08-25T16:27:14.631Z,49.32
2022-08-25T16:29:44.120Z,47.43
2022-08-25T16:32:14.048Z,49.54
2022-08-25T16:34:43.186Z,49.69
2022-08-25T16:37:12.783Z,49.28
2022-08-25T16:39:45.757Z,48.52
2022-08-25T16:42:14.105Z,47.85
2022-08-25T16:44:41.589Z,49.13
2022-08-25T16:47:09.205Z,49.90
2022-08-25T16:49:37.171Z,50.96
2022-08-25T16:52:28.328Z,51.39
2022-08-25T16:55:15.985Z,51.25
2022-08-25T16:57:47.441Z,51.13
2022-08-25T17:00:22.426Z,51.90
2022-08-25T17:02:52.087Z,52.53
2022-08-25T17:05:20.236Z,53.67
2022-08-25T17:08:08.166Z,53.38
2022-08-25T17:10:39.477Z,53.85
2022-08-25T17:13:07.565Z,54.56
2022-08-25T17:15:39.976Z,55.09
2022-08-25T17:18:08.264Z,55.68
2022-08-25T17:20:39.066Z,55.90
2022-08-25T17:23:12.006Z,56.20
2022-08-25T17:25:42.991Z,56.71
2022-08-25T17:28:12.088Z,57.06
2022-08-25T17:30:41.361Z,57.17
2022-08-25T17:33:08.974Z,57.13
2022-08-25T17:35:41.187Z,57.09
2022-08-25T17:38:09.544Z,57.28
2022-08-25T17:40:37.763Z,57.43
2022-08-25T17:43:09.093Z,57.75
2022-08-25T17:45:39.115Z,58.47
2022-08-25T17:48:08.913Z,58.81
2022-08-25T17:50:39.161Z,59.25
2022-08-25T17:53:09.347Z,59.48
2022-08-25T17:55:40.229Z,59.74
2022-08-25T17:58:13.696Z,60.03
2022-08-25T18:00:43.927Z,60.31
2022-08-25T18:03:12.059Z,60.51
2022-08-25T18:05:39.805Z,60.83
2022-08-25T18:08:10.530Z,61.19
2022-08-25T18:10:39.295Z,61.42
2022-08-25T18:13:07.208Z,61.69
2022-08-25T18:15:35.521Z,62.10
2022-08-25T18:18:04.723Z,62.63
2022-08-25T18:20:33.174Z,63.15
2022-08-25T18:23:00.642Z,63.94
2022-08-25T18:25:28.816Z,64.29
2022-08-25T18:27:57.615Z,64.78
2022-08-25T18:30:26.192Z,64.84
2022-08-25T18:32:55.160Z,64.55
2022-08-25T18:35:22.679Z,64.03
2022-08-25T18:38:13.113Z,63.78
2022-08-25T18:40:41.792Z,64.07
2022-08-25T18:43:12.073Z,64.32
2022-08-25T18:45:43.428Z,64.29
2022-08-25T18:48:11.535Z,64.50
2022-08-25T18:50:40.825Z,64.55
2022-08-25T18:53:09.472Z,65.19
2022-08-25T18:55:38.329Z,65.56
2022-08-25T18:58:07.118Z,65.62
2022-08-25T19:00:36.028Z,66.97
2022-08-25T19:03:04.425Z,66.96
2022-08-25T19:05:36.228Z,67.14
2022-08-25T19:08:06.815Z,67.79
2022-08-25T19:10:35.960Z,68.66
2022-08-25T19:13:08.034Z,68.38
2022-08-25T19:15:38.424Z,69.19
2022-08-25T19:18:09.960Z,69.08
2022-08-25T19:20:39.436Z,70.58
2022-08-25T19:23:08.833Z,69.82
2022-08-25T19:25:41.759Z,70.38
2022-08-25T19:28:12.135Z,71.12
2022-08-25T19:30:43.671Z,72.10
2022-08-25T19:33:42.683Z,71.14
2022-08-25T19:36:08.999Z,71.43
2022-08-25T19:38:37.652Z,71.58
2022-08-25T19:41:13.868Z,71.45
2022-08-25T19:43:55.645Z,71.68
2022-08-25T19:46:32.740Z,72.42
2022-08-25T19:49:22.876Z,72.14
2022-08-25T19:51:53.293Z,72.47
2022-08-25T19:54:25.402Z,73.09
2022-08-25T19:56:54.369Z,74.21
2022-08-25T19:59:26.664Z,73.54
2022-08-25T20:02:03.036Z,73.77
2022-08-25T20:04:30.794Z,73.85
2022-08-25T20:06:59.112Z,74.26
2022-08-25T20:09:39.383Z,74.03
2022-08-25T20:12:10.556Z,74.35
2022-08-25T20:14:38.248Z,74.31
2022-08-25T20:17:14.686Z,74.64
2022-08-25T20:19:56.060Z,75.67
2022-08-25T20:22:26.933Z,75.88
2022-08-25T20:24:58.365Z,75.48
2022-08-25T20:27:34.958Z,76.06
2022-08-25T20:30:06.883Z,76.05
2022-08-25T20:32:35.647Z,76.24
2022-08-25T20:35:05.967Z,76.50
2022-08-25T20:37:36.532Z,76.46
2022-08-25T20:40:05.275Z,76.59
2022-08-25T20:42:32.800Z,77.18
2022-08-25T20:45:00.371Z,77.01
2022-08-25T20:47:29.022Z,76.46
2022-08-25T20:50:00.360Z,76.68
2022-08-25T20:52:32.567Z,76.56
2022-08-25T20:55:02.379Z,77.02
2022-08-25T20:57:31.052Z,76.73
2022-08-25T20:59:59.871Z,77.03
2022-08-25T21:02:29.475Z,77.59
2022-08-25T21:04:57.660Z,78.24
2022-08-25T21:07:25.793Z,77.95
2022-08-25T21:09:53.420Z,78.30
2022-08-25T21:12:21.789Z,78.32
2022-08-25T21:14:50.682Z,79.16
2022-08-25T21:17:19.004Z,79.03
2022-08-25T21:22:16.469Z,78.20
2022-08-25T21:24:44.943Z,77.81
2022-08-25T21:27:12.486Z,78.07
2022-08-25T21:29:44.777Z,78.64
2022-08-25T21:32:23.973Z,78.98
2022-08-25T21:34:53.922Z,79.37
2022-08-25T21:37:22.025Z,78.78
2022-08-25T21:39:49.731Z,78.71
2022-08-25T21:42:19.080Z,79.66
2022-08-25T21:44:46.799Z,80.42
2022-08-25T21:47:14.262Z,79.67
2022-08-25T21:49:42.492Z,79.56
2022-08-25T21:52:09.929Z,80.00
2022-08-25T21:54:38.588Z,81.79
2022-08-25T21:57:06.578Z,81.14
2022-08-25T21:59:37.621Z,80.52
2022-08-25T22:02:09.053Z,80.33
2022-08-25T22:04:38.805Z,82.78
2022-08-25T22:07:08.327Z,81.44
2022-08-25T22:09:36.722Z,81.93
2022-08-25T22:12:05.400Z,81.76
2022-08-25T22:14:34.228Z,82.54
2022-08-25T22:17:02.492Z,83.46
2022-08-25T22:19:30.805Z,82.31
2022-08-25T22:22:01.371Z,82.70
2022-08-25T22:24:29.197Z,82.44
2022-08-25T22:26:57.089Z,82.69
2022-08-25T22:29:26.221Z,82.38
2022-08-25T22:32:00.980Z,83.37
2022-08-25T22:34:34.655Z,82.80
2022-08-25T22:37:04.134Z,83.76
2022-08-25T22:39:34.271Z,84.07
2022-08-25T22:42:03.239Z,83.87
2022-08-25T22:44:30.789Z,84.00
2022-08-25T22:46:58.533Z,84.07
2022-08-25T22:49:29.183Z,83.71
2022-08-25T22:51:57.892Z,82.75
2022-08-25T22:54:25.666Z,82.43
2022-08-25T22:56:53.595Z,82.44
2022-08-25T22:59:22.106Z,82.14
2022-08-25T23:01:52.619Z,82.24
2022-08-25T23:04:22.751Z,82.35
2022-08-25T23:06:52.685Z,83.43
2022-08-25T23:09:20.948Z,82.76
2022-08-25T23:11:51.158Z,81.36
2022-08-25T23:14:19.183Z,80.38
2022-08-25T23:16:46.615Z,81.63
2022-08-25T23:19:14.807Z,81.48
2022-08-25T23:22:02.569Z,79.93
2022-08-25T23:24:31.100Z,80.48
2022-08-25T23:26:59.688Z,81.20
2022-08-25T23:29:28.187Z,79.49
2022-08-25T23:31:57.637Z,80.33
2022-08-25T23:34:26.294Z,82.71
2022-08-25T23:36:53.906Z,79.50
2022-08-25T23:39:22.209Z,79.25
2022-08-25T23:41:50.714Z,80.93
2022-08-25T23:44:20.986Z,78.83
2022-08-25T23:46:49.564Z,77.17
2022-08-25T23:49:19.179Z,77.38
2022-08-25T23:51:51.853Z,77.36
2022-08-25T23:54:21.267Z,77.19
2022-08-25T23:56:52.271Z,77.42
2022-08-25T23:59:24.267Z,77.50
